Time;durP1;ratioP1;P1;durP2;ratioP2;P2;SDS_P1;SDS_P2;PMS_P1;PMS_P2;Temp;Humidity;BMP_temperature;BMP_pressure;BME280_temperature;BME280_humidity;BME280_pressure;Samples;Min_cycle;Max_cycle;Signal;HPM_P1;HPM_P2
2021/09/07 00:02:17;;;;;;;4.15;3.70;;;19.40;58.20;;;;;;5018245;28;20250;-83
2021/09/07 00:04:43;;;;;;;4.68;3.75;;;19.40;58.20;;;;;;5017438;28;20172;-84
2021/09/07 00:07:09;;;;;;;4.97;3.90;;;19.40;58.10;;;;;;5034265;28;20177;-86
2021/09/07 00:09:38;;;;;;;4.47;3.80;;;19.40;58.20;;;;;;5034550;28;20583;-83
2021/09/07 00:12:04;;;;;;;4.43;3.90;;;19.40;58.00;;;;;;5017552;28;20532;-85
2021/09/07 00:14:30;;;;;;;5.30;4.15;;;19.40;58.10;;;;;;5017756;28;20309;-86
2021/09/07 00:20:17;;;;;;;4.70;3.80;;;19.40;58.00;;;;;;5035378;28;20170;-84
2021/09/07 00:22:45;;;;;;;4.05;3.63;;;19.40;58.00;;;;;;5017998;28;20171;-84
2021/09/07 00:25:11;;;;;;;3.90;3.47;;;19.40;58.00;;;;;;5017289;28;20155;-85
2021/09/07 00:27:37;;;;;;;3.83;3.40;;;19.40;58.00;;;;;;5017752;28;20171;-86
2021/09/07 00:30:03;;;;;;;4.10;3.70;;;19.40;58.00;;;;;;5034034;28;20506;-85
2021/09/07 00:32:33;;;;;;;5.30;4.00;;;19.40;58.10;;;;;;5017267;28;20182;-83
2021/09/07 00:35:00;;;;;;;4.20;3.70;;;19.30;58.10;;;;;;5016603;28;20194;-85
2021/09/07 00:37:28;;;;;;;4.35;3.67;;;19.40;58.20;;;;;;5032960;28;20182;-84
2021/09/07 00:39:56;;;;;;;4.38;3.60;;;19.40;58.90;;;;;;5032925;28;20206;-85
2021/09/07 00:42:23;;;;;;;4.28;3.65;;;19.40;58.10;;;;;;5016296;28;20183;-86
2021/09/07 00:44:51;;;;;;;5.10;4.00;;;19.40;58.20;;;;;;5032901;28;20186;-85
2021/09/07 00:47:19;;;;;;;4.50;3.83;;;19.40;58.10;;;;;;5032724;28;20313;-85
2021/09/07 00:49:49;;;;;;;4.13;3.50;;;19.40;58.00;;;;;;5032833;28;20534;-85
2021/09/07 00:52:17;;;;;;;4.30;3.63;;;19.40;58.20;;;;;;5033132;28;20183;-83
2021/09/07 00:54:45;;;;;;;4.07;3.67;;;19.40;58.10;;;;;;5016285;28;20269;-84
2021/09/07 00:57:10;;;;;;;4.50;3.45;;;19.40;58.30;;;;;;5032626;28;20183;-85
2021/09/07 00:59:40;;;;;;;4.32;3.85;;;19.40;58.20;;;;;;5017288;28;20206;-83
2021/09/07 01:02:18;;;;;;;4.95;4.10;;;19.40;58.00;;;;;;5033309;28;20205;-85
2021/09/07 01:04:44;;;;;;;5.00;3.83;;;19.40;58.10;;;;;;5033568;28;20220;-83
2021/09/07 01:07:09;;;;;;;4.55;3.90;;;19.40;58.20;;;;;;5016914;28;20586;-83
2021/09/07 01:09:35;;;;;;;4.57;4.00;;;19.40;58.20;;;;;;5016577;28;20626;-86
2021/09/07 01:12:07;;;;;;;4.22;3.60;;;19.40;58.20;;;;;;5016996;28;20246;-83
2021/09/07 01:14:37;;;;;;;4.20;3.78;;;19.40;58.10;;;;;;5032371;28;20262;-84
2021/09/07 01:17:14;;;;;;;4.18;3.60;;;19.40;58.20;;;;;;5015033;28;20214;-84
2021/09/07 01:19:45;;;;;;;4.35;3.92;;;19.40;58.20;;;;;;5016608;28;20259;-86
2021/09/07 01:22:16;;;;;;;3.90;3.50;;;19.40;58.20;;;;;;5032316;28;20182;-83
2021/09/07 01:24:45;;;;;;;4.43;3.90;;;19.40;58.20;;;;;;5032230;28;20192;-83
2021/09/07 01:27:14;;;;;;;5.13;3.90;;;19.30;58.20;;;;;;5031964;28;20186;-85
2021/09/07 01:29:40;;;;;;;4.55;4.00;;;19.40;58.30;;;;;;5031934;28;20190;-85
2021/09/07 01:32:09;;;;;;;4.40;3.72;;;19.40;58.20;;;;;;5016320;28;20228;-84
2021/09/07 01:34:35;;;;;;;4.30;3.80;;;19.40;58.20;;;;;;5016517;28;20634;-83
2021/09/07 01:37:01;;;;;;;4.63;3.97;;;19.40;58.30;;;;;;5032856;28;20163;-84
2021/09/07 01:39:29;;;;;;;4.45;3.67;;;19.30;58.10;;;;;;5016414;28;20175;-85
2021/09/07 01:41:59;;;;;;;4.78;4.00;;;19.40;58.20;;;;;;5015433;28;20191;-83
2021/09/07 01:44:26;;;;;;;4.88;3.95;;;19.30;58.10;;;;;;5031745;28;20185;-84
2021/09/07 01:46:54;;;;;;;4.15;3.45;;;19.40;58.10;;;;;;5031677;28;20174;-83
2021/09/07 01:49:21;;;;;;;4.97;4.15;;;19.40;58.20;;;;;;5015156;28;20190;-83
2021/09/07 01:51:48;;;;;;;4.70;3.88;;;19.40;58.30;;;;;;5031833;28;20189;-83
2021/09/07 01:54:16;;;;;;;4.80;4.00;;;19.30;58.20;;;;;;5015945;28;20162;-84
2021/09/07 01:56:43;;;;;;;4.40;3.80;;;19.30;58.10;;;;;;5015118;28;20179;-85
2021/09/07 01:59:10;;;;;;;4.22;3.80;;;19.40;58.20;;;;;;5014872;28;20304;-85
2021/09/07 02:01:37;;;;;;;4.60;4.00;;;19.30;58.20;;;;;;5031192;28;20536;-83
2021/09/07 02:04:22;;;;;;;3.97;3.58;;;19.40;58.30;;;;;;5031638;28;20186;-85
2021/09/07 02:06:53;;;;;;;5.63;3.92;;;19.30;58.20;;;;;;5031435;28;20186;-84
2021/09/07 02:09:20;;;;;;;4.35;3.58;;;19.30;58.20;;;;;;5031294;28;20186;-87
2021/09/07 02:11:46;;;;;;;4.22;3.60;;;19.30;58.20;;;;;;5048537;28;20166;-84
2021/09/07 02:14:12;;;;;;;5.15;4.10;;;19.30;58.20;;;;;;5032030;28;20313;-84
2021/09/07 02:16:51;;;;;;;4.65;3.92;;;19.30;58.20;;;;;;5031882;28;20177;-83
2021/09/07 02:19:21;;;;;;;4.00;3.60;;;19.30;58.20;;;;;;5031830;28;20220;-85
2021/09/07 02:21:51;;;;;;;4.63;3.70;;;19.30;58.20;;;;;;5031434;28;20193;-84
2021/09/07 02:24:17;;;;;;;5.53;4.18;;;19.30;58.20;;;;;;5014950;28;20183;-83
2021/09/07 02:26:43;;;;;;;4.43;3.72;;;19.30;58.20;;;;;;5048573;28;20197;-85
2021/09/07 02:29:09;;;;;;;4.85;4.10;;;19.30;58.20;;;;;;5035379;28;20202;-86
2021/09/07 02:31:35;;;;;;;3.78;3.40;;;19.30;58.20;;;;;;5035981;28;20163;-83
2021/09/07 02:34:01;;;;;;;3.90;3.45;;;19.30;58.20;;;;;;5036192;28;20498;-85
2021/09/07 02:36:28;;;;;;;4.30;3.90;;;19.20;58.10;;;;;;5019972;28;20177;-83
2021/09/07 02:38:54;;;;;;;3.88;3.53;;;19.30;58.20;;;;;;5052270;28;20683;-84
2021/09/07 02:41:24;;;;;;;4.25;3.85;;;19.30;58.20;;;;;;5019668;28;20258;-85
2021/09/07 02:43:53;;;;;;;4.70;4.00;;;19.20;58.20;;;;;;5035047;28;20549;-85
2021/09/07 02:46:22;;;;;;;4.35;3.83;;;19.30;58.90;;;;;;5035015;28;20201;-84
2021/09/07 02:48:51;;;;;;;4.40;3.80;;;19.30;58.20;;;;;;5034928;28;20279;-86
2021/09/07 02:51:19;;;;;;;4.53;3.72;;;19.30;58.20;;;;;;5034667;28;20190;-84
2021/09/07 02:53:47;;;;;;;4.18;3.78;;;19.30;58.20;;;;;;5034608;28;20193;-84
2021/09/07 02:56:16;;;;;;;4.68;3.90;;;19.30;58.20;;;;;;5018172;28;20182;-83
2021/09/07 02:58:46;;;;;;;4.10;3.70;;;19.30;58.30;;;;;;5018122;28;20216;-84
2021/09/07 03:01:13;;;;;;;5.47;3.80;;;19.20;58.20;;;;;;5034756;28;20202;-83
2021/09/07 03:03:46;;;;;;;4.00;3.58;;;19.30;58.20;;;;;;5019449;28;20207;-85
2021/09/07 03:06:16;;;;;;;4.53;3.90;;;19.30;58.20;;;;;;5035635;28;20159;-86
2021/09/07 03:08:45;;;;;;;4.10;3.70;;;19.30;58.20;;;;;;5017955;28;20222;-82
2021/09/07 03:11:14;;;;;;;4.38;3.97;;;19.30;58.20;;;;;;5034620;28;20297;-82
2021/09/07 03:13:39;;;;;;;3.97;3.47;;;19.30;58.20;;;;;;5034338;28;20732;-84
2021/09/07 03:16:08;;;;;;;4.30;3.90;;;19.30;58.20;;;;;;5018589;28;20189;-85
2021/09/07 03:18:53;;;;;;;4.20;3.80;;;19.30;58.20;;;;;;5034480;28;20230;-85
2021/09/07 03:21:25;;;;;;;4.70;4.07;;;19.30;58.20;;;;;;5034321;28;20193;-84
2021/09/07 03:23:55;;;;;;;4.03;3.63;;;19.30;58.20;;;;;;5034559;28;20645;-85
2021/09/07 03:26:22;;;;;;;4.55;3.95;;;19.20;58.20;;;;;;5034372;28;20228;-83
2021/09/07 03:28:51;;;;;;;4.60;4.00;;;19.20;58.20;;;;;;5035227;28;20511;-86
2021/09/07 03:31:20;;;;;;;4.22;3.83;;;19.30;58.40;;;;;;5017522;28;20186;-85
2021/09/07 03:33:49;;;;;;;4.28;3.85;;;19.30;58.30;;;;;;5017583;28;20649;-84
2021/09/07 03:36:18;;;;;;;4.53;3.78;;;19.20;58.30;;;;;;5034315;28;20191;-83
2021/09/07 03:38:46;;;;;;;4.20;3.80;;;19.30;58.40;;;;;;5033989;28;20563;-83
2021/09/07 03:41:13;;;;;;;4.30;3.80;;;19.20;58.20;;;;;;5033019;28;20233;-84
2021/09/07 03:43:42;;;;;;;4.47;3.85;;;19.30;58.40;;;;;;5035105;28;20171;-83
2021/09/07 03:46:10;;;;;;;4.45;3.85;;;19.20;58.30;;;;;;5017544;28;20182;-85
2021/09/07 03:48:39;;;;;;;4.60;4.00;;;19.30;58.30;;;;;;5017309;28;20183;-86
2021/09/07 03:51:08;;;;;;;5.38;4.20;;;19.30;58.30;;;;;;5033944;28;20269;-86
2021/09/07 03:53:36;;;;;;;4.97;4.15;;;19.20;58.30;;;;;;5033988;28;20648;-84
2021/09/07 03:56:04;;;;;;;4.53;3.70;;;19.30;58.40;;;;;;5034032;28;20198;-85
2021/09/07 03:58:32;;;;;;;3.95;3.50;;;19.30;58.40;;;;;;5017503;28;20213;-85
2021/09/07 04:01:00;;;;;;;4.00;3.58;;;19.30;58.40;;;;;;5017501;28;20182;-86
2021/09/07 04:03:27;;;;;;;4.05;3.60;;;19.30;58.40;;;;;;5017620;28;20273;-86
2021/09/07 04:05:58;;;;;;;4.22;3.75;;;19.30;58.40;;;;;;5017054;28;20205;-83
2021/09/07 04:08:25;;;;;;;4.28;3.80;;;19.20;58.40;;;;;;5017265;28;20186;-84
2021/09/07 04:10:53;;;;;;;4.22;3.63;;;19.20;58.30;;;;;;5033517;28;20190;-83
2021/09/07 04:13:18;;;;;;;4.80;3.92;;;19.20;58.40;;;;;;5016670;28;20558;-83
2021/09/07 04:26:31;;;;;;;4.50;3.70;;;19.20;58.40;;;;;;5035354;28;20153;-85
2021/09/07 04:29:01;;;;;;;4.43;3.40;;;19.20;58.40;;;;;;5033836;28;20182;-83
2021/09/07 04:31:29;;;;;;;3.80;3.40;;;19.20;58.40;;;;;;5033279;28;20520;-83
2021/09/07 04:33:55;;;;;;;4.63;3.80;;;19.20;58.50;;;;;;5016369;28;20521;-85
2021/09/07 04:36:22;;;;;;;4.25;3.35;;;19.20;58.50;;;;;;5032627;28;20269;-85
2021/09/07 04:38:49;;;;;;;4.03;3.63;;;19.20;58.40;;;;;;5032751;28;20206;-83
2021/09/07 04:41:15;;;;;;;4.45;3.75;;;19.20;58.40;;;;;;5016600;28;20206;-84
2021/09/07 04:43:42;;;;;;;3.75;3.35;;;19.20;58.40;;;;;;5017117;28;20197;-85
2021/09/07 04:46:09;;;;;;;4.28;3.45;;;19.20;58.40;;;;;;5033100;28;20654;-86
2021/09/07 04:48:39;;;;;;;3.70;3.35;;;19.20;58.40;;;;;;5032757;28;20183;-83
2021/09/07 04:51:06;;;;;;;4.38;3.65;;;19.20;58.40;;;;;;5031963;28;20190;-84
2021/09/07 04:53:33;;;;;;;4.55;3.63;;;19.20;58.40;;;;;;5015658;28;20193;-84
2021/09/07 04:56:01;;;;;;;3.70;3.30;;;19.30;58.50;;;;;;5032410;28;20191;-85
2021/09/07 04:58:28;;;;;;;4.25;3.63;;;19.30;58.60;;;;;;5032168;28;20210;-83
2021/09/07 05:00:55;;;;;;;3.53;3.13;;;19.20;58.60;;;;;;5032275;28;20197;-85
2021/09/07 05:03:21;;;;;;;3.97;3.45;;;19.20;58.70;;;;;;5032579;28;20187;-85
2021/09/07 05:05:47;;;;;;;3.42;3.10;;;19.20;58.60;;;;;;5016722;28;20233;-85
2021/09/07 05:08:15;;;;;;;3.75;3.35;;;19.20;58.50;;;;;;5015917;28;20633;-82
2021/09/07 05:10:42;;;;;;;4.50;3.63;;;19.20;58.40;;;;;;5032317;28;20183;-83
2021/09/07 05:13:08;;;;;;;3.80;3.40;;;19.20;58.60;;;;;;5032063;28;20214;-83
2021/09/07 05:15:33;;;;;;;3.60;3.22;;;19.20;58.60;;;;;;5017016;28;20281;-86
2021/09/07 05:18:00;;;;;;;4.72;3.83;;;19.20;58.60;;;;;;5016489;28;20197;-83
2021/09/07 05:20:27;;;;;;;4.13;3.55;;;19.20;58.80;;;;;;5031967;28;20178;-85
2021/09/07 05:22:54;;;;;;;3.92;3.25;;;19.30;58.90;;;;;;5031971;28;20280;-84
2021/09/07 05:25:21;;;;;;;4.10;3.40;;;19.20;58.90;;;;;;5015573;28;20194;-85
2021/09/07 05:27:48;;;;;;;3.53;3.00;;;19.20;58.90;;;;;;5032307;28;20285;-86
2021/09/07 05:30:15;;;;;;;3.95;3.22;;;19.20;59.00;;;;;;5015967;28;20540;-84
2021/09/07 05:32:42;;;;;;;4.00;3.20;;;19.20;59.10;;;;;;5015430;28;20174;-83
2021/09/07 05:35:12;;;;;;;4.35;3.38;;;19.20;59.00;;;;;;5033022;28;20637;-84
2021/09/07 05:37:41;;;;;;;3.83;3.45;;;19.20;59.10;;;;;;5031993;28;20237;-84
2021/09/07 05:40:09;;;;;;;3.17;2.85;;;19.20;59.10;;;;;;5032146;28;20264;-83
2021/09/07 05:42:34;;;;;;;3.85;3.30;;;19.20;59.20;;;;;;5016497;28;20238;-84
2021/09/07 05:45:15;;;;;;;3.97;3.47;;;19.20;59.20;;;;;;5016283;28;20226;-84
2021/09/07 05:47:41;;;;;;;3.90;3.47;;;19.20;59.20;;;;;;5016604;28;20177;-84
2021/09/07 05:50:09;;;;;;;4.38;3.45;;;19.20;59.30;;;;;;5016125;28;20147;-82
2021/09/07 05:52:46;;;;;;;3.90;3.50;;;19.20;59.30;;;;;;5016245;28;20205;-84
2021/09/07 05:55:14;;;;;;;4.10;3.60;;;19.20;59.50;;;;;;5015993;28;20172;-84
2021/09/07 05:57:40;;;;;;;3.65;3.28;;;19.20;59.40;;;;;;5016512;28;20174;-85
2021/09/07 06:00:07;;;;;;;3.80;3.40;;;19.20;59.40;;;;;;5016178;28;20217;-85
2021/09/07 06:02:37;;;;;;;3.72;3.30;;;19.20;59.60;;;;;;5032006;28;20174;-84
2021/09/07 06:05:04;;;;;;;4.85;3.92;;;19.20;59.50;;;;;;5031253;28;20222;-84
2021/09/07 06:07:31;;;;;;;3.92;3.35;;;19.20;59.60;;;;;;5032544;28;20194;-83
2021/09/07 06:09:57;;;;;;;3.83;3.40;;;19.30;59.60;;;;;;5032839;28;20170;-85
2021/09/07 06:12:24;;;;;;;3.72;3.35;;;19.20;59.60;;;;;;5032334;28;20230;-84
2021/09/07 06:14:49;;;;;;;3.67;3.17;;;19.20;59.70;;;;;;5016019;28;20234;-85
2021/09/07 06:17:15;;;;;;;4.03;3.55;;;19.20;59.60;;;;;;5016028;28;20253;-83
2021/09/07 06:19:46;;;;;;;4.28;3.47;;;19.20;59.70;;;;;;5032377;28;20548;-83
2021/09/07 06:22:16;;;;;;;4.22;3.63;;;19.20;59.80;;;;;;5031850;28;20240;-84
2021/09/07 06:24:42;;;;;;;3.72;3.40;;;19.10;59.80;;;;;;5031699;28;20178;-85
2021/09/07 06:30:37;;;;;;;4.15;3.47;;;19.20;60.00;;;;;;5033585;28;20205;-84
2021/09/07 06:33:02;;;;;;;3.60;3.30;;;19.30;60.10;;;;;;5015971;28;20541;-83
2021/09/07 06:35:32;;;;;;;3.90;3.50;;;19.30;60.10;;;;;;5016151;28;20170;-86
2021/09/07 06:38:07;;;;;;;4.68;3.53;;;19.30;60.10;;;;;;5049059;28;20244;-84
2021/09/07 06:40:33;;;;;;;3.83;3.47;;;19.20;60.10;;;;;;5038738;28;20823;-84
2021/09/07 06:43:10;;;;;;;4.05;3.35;;;19.20;60.20;;;;;;5021641;28;20185;-85
2021/09/07 06:45:48;;;;;;;4.15;3.60;;;19.20;60.40;;;;;;5053863;28;20173;-84
2021/09/07 06:48:14;;;;;;;3.90;3.35;;;19.20;60.10;;;;;;5038617;28;20303;-85
2021/09/07 06:50:43;;;;;;;5.30;3.58;;;19.30;60.20;;;;;;5037164;28;20213;-84
2021/09/07 06:53:31;;;;;;;4.45;3.40;;;19.30;60.30;;;;;;5035932;28;20248;-83
2021/09/07 06:55:57;;;;;;;4.68;3.63;;;19.30;60.60;;;;;;5054059;28;20265;-85
2021/09/07 06:58:26;;;;;;;3.78;3.38;;;19.30;60.50;;;;;;5053776;28;20239;-83
2021/09/07 07:00:58;;;;;;;4.40;3.60;;;19.30;60.60;;;;;;5054556;28;20268;-84
2021/09/07 07:03:29;;;;;;;4.22;3.63;;;19.20;60.70;;;;;;5037852;28;20635;-84
2021/09/07 07:06:00;;;;;;;5.10;3.85;;;19.30;60.70;;;;;;5040445;28;20185;-84
2021/09/07 07:08:26;;;;;;;4.78;3.88;;;19.30;61.00;;;;;;5061150;28;20185;-85
2021/09/07 07:10:52;;;;;;;4.30;3.58;;;19.30;61.10;;;;;;5031936;28;20178;-84
2021/09/07 07:13:18;;;;;;;4.60;4.07;;;19.30;61.30;;;;;;5038147;28;20229;-85
2021/09/07 07:15:48;;;;;;;4.10;3.63;;;19.30;61.30;;;;;;5019292;28;20179;-85
2021/09/07 07:18:18;;;;;;;4.70;3.60;;;19.30;61.40;;;;;;5038851;28;20194;-85
2021/09/07 07:20:44;;;;;;;4.05;3.65;;;19.30;61.50;;;;;;5019945;28;20179;-84
2021/09/07 07:23:10;;;;;;;5.05;4.05;;;19.30;61.50;;;;;;5037947;28;20513;-85
2021/09/07 07:25:36;;;;;;;4.90;3.72;;;19.30;61.50;;;;;;5040130;28;20183;-84
2021/09/07 07:28:02;;;;;;;3.90;3.50;;;19.20;61.60;;;;;;5056514;28;20163;-83
2021/09/07 07:30:29;;;;;;;4.07;3.65;;;19.20;61.60;;;;;;5054104;28;20197;-87
2021/09/07 07:32:55;;;;;;;4.00;3.58;;;19.30;61.80;;;;;;5042623;28;20230;-84
2021/09/07 07:35:26;;;;;;;4.10;3.60;;;19.30;61.60;;;;;;5036579;28;20626;-84
2021/09/07 07:37:52;;;;;;;4.97;3.58;;;19.30;61.90;;;;;;5037542;28;20182;-81
2021/09/07 07:40:18;;;;;;;3.78;3.25;;;19.30;61.60;;;;;;5038551;28;20524;-82
2021/09/07 07:42:44;;;;;;;5.55;3.70;;;19.30;61.90;;;;;;5054174;28;20515;-84
2021/09/07 07:45:10;;;;;;;3.70;3.20;;;19.30;61.80;;;;;;5054679;28;20256;-83
2021/09/07 07:48:14;;;;;;;4.65;3.70;;;19.30;62.00;;;;;;5040908;28;20277;-83
2021/09/07 07:50:40;;;;;;;4.68;3.80;;;19.30;62.00;;;;;;5039667;28;20264;-83
2021/09/07 07:53:10;;;;;;;4.63;3.65;;;19.30;62.10;;;;;;5042692;28;20170;-83
2021/09/07 07:55:46;;;;;;;4.53;3.70;;;19.30;62.10;;;;;;5019895;28;20183;-81
2021/09/07 07:58:19;;;;;;;5.38;4.05;;;19.30;62.10;;;;;;5018872;28;20185;-82
2021/09/07 08:01:49;;;;;;;4.50;3.70;;;19.30;62.40;;;;;;5039266;28;20183;-81
2021/09/07 08:11:22;;;;;;;4.20;3.80;;;19.40;62.40;;;;;;5057822;28;20188;-83
2021/09/07 08:14:15;;;;;;;4.30;3.65;;;19.30;62.70;;;;;;5058843;28;20307;-83
2021/09/07 08:20:11;;;;;;;3.83;3.30;;;19.40;62.70;;;;;;5060527;28;20585;-82
2021/09/07 08:22:43;;;;;;;4.32;3.70;;;19.30;63.00;;;;;;5043536;28;20249;-83
2021/09/07 08:25:11;;;;;;;4.20;3.78;;;19.40;63.00;;;;;;5043520;28;20288;-83
2021/09/07 08:34:24;;;;;;;4.18;3.78;;;19.40;63.10;;;;;;5060229;28;20233;-83
2021/09/07 08:36:59;;;;;;;4.32;3.65;;;19.40;62.90;;;;;;5043768;28;20174;-83
2021/09/07 08:46:19;;;;;;;4.57;3.70;;;19.50;63.60;;;;;;5021669;28;20163;-82
2021/09/07 08:52:14;;;;;;;4.20;3.80;;;19.50;63.80;;;;;;5023286;28;20158;-82
2021/09/07 08:54:43;;;;;;;4.88;4.13;;;19.50;63.60;;;;;;5022010;28;20671;-82
2021/09/07 08:57:49;;;;;;;4.55;3.78;;;19.50;63.80;;;;;;5021869;28;20226;-82
2021/09/07 09:01:06;;;;;;;5.05;4.03;;;19.40;64.10;;;;;;5020958;28;20214;-82
2021/09/07 09:10:45;;;;;;;5.25;4.07;;;19.50;64.00;;;;;;5021743;28;20217;-82
2021/09/07 09:13:13;;;;;;;4.55;3.80;;;19.50;64.00;;;;;;5019122;28;20302;-82
2021/09/07 09:16:07;;;;;;;4.95;3.70;;;19.50;63.90;;;;;;5023729;28;20162;-82
2021/09/07 09:19:05;;;;;;;4.57;3.88;;;19.50;63.90;;;;;;5039334;28;20214;-82
2021/09/07 09:22:10;;;;;;;6.68;4.10;;;19.50;64.10;;;;;;5040415;28;20313;-83
2021/09/07 09:28:17;;;;;;;5.22;4.13;;;19.50;64.40;;;;;;5041701;28;20230;-83
2021/09/07 09:30:55;;;;;;;4.60;4.03;;;19.60;64.00;;;;;;5041198;28;20189;-82
2021/09/07 09:33:26;;;;;;;6.72;3.58;;;19.50;64.10;;;;;;5038005;28;20186;-82
2021/09/07 09:36:01;;;;;;;6.13;3.95;;;19.50;64.20;;;;;;5032696;28;20308;-83
2021/09/07 09:38:34;;;;;;;5.93;3.90;;;19.60;64.30;;;;;;5031685;28;20236;-82
2021/09/07 09:41:05;;;;;;;5.82;4.10;;;19.60;64.30;;;;;;5032494;28;20187;-82
2021/09/07 09:43:38;;;;;;;4.97;4.05;;;19.70;65.10;;;;;;5032032;28;20257;-83
2021/09/07 09:46:22;;;;;;;5.05;3.50;;;19.60;64.10;;;;;;5018009;28;20152;-83
2021/09/07 09:48:53;;;;;;;4.90;4.07;;;19.60;64.10;;;;;;5034635;28;20158;-85
2021/09/07 09:51:24;;;;;;;6.25;4.35;;;19.60;64.10;;;;;;5036450;28;20183;-84
2021/09/07 09:53:53;;;;;;;4.50;4.05;;;19.70;64.30;;;;;;5019106;28;20206;-85
2021/09/07 09:56:21;;;;;;;6.20;4.18;;;19.60;64.40;;;;;;5016548;28;20562;-84
2021/09/07 09:58:47;;;;;;;5.95;4.22;;;19.50;64.50;;;;;;5033604;28;20210;-84
2021/09/07 10:01:16;;;;;;;6.65;4.00;;;19.50;64.70;;;;;;5016353;28;20262;-82
2021/09/07 10:03:44;;;;;;;5.70;4.43;;;19.50;64.70;;;;;;5032551;28;20222;-85
2021/09/07 10:06:12;;;;;;;6.22;4.45;;;19.60;64.80;;;;;;5032606;28;20182;-83
2021/09/07 10:08:42;;;;;;;5.03;4.13;;;19.50;64.80;;;;;;5033045;28;20198;-84
2021/09/07 10:11:14;;;;;;;5.07;4.20;;;19.60;64.80;;;;;;5033292;28;20182;-84
2021/09/07 10:13:42;;;;;;;4.43;3.97;;;19.60;64.90;;;;;;5036131;28;20593;-84
2021/09/07 10:16:14;;;;;;;5.32;3.97;;;19.60;64.70;;;;;;5018063;28;20193;-84
2021/09/07 10:18:50;;;;;;;5.25;4.10;;;19.60;64.80;;;;;;5018062;28;20187;-84
2021/09/07 10:26:50;;;;;;;4.80;4.20;;;19.60;64.80;;;;;;5018714;28;20560;-83
2021/09/07 10:29:46;;;;;;;4.00;3.60;;;19.60;64.70;;;;;;5032675;28;20193;-82
2021/09/07 10:32:27;;;;;;;6.10;4.30;;;19.60;64.70;;;;;;5031982;28;20198;-80
2021/09/07 10:35:07;;;;;;;4.60;3.92;;;19.60;64.90;;;;;;5032320;28;20155;-82
2021/09/07 10:38:07;;;;;;;4.85;4.18;;;19.70;65.00;;;;;;5016106;28;20171;-81
2021/09/07 10:40:48;;;;;;;4.60;4.00;;;19.50;64.90;;;;;;5047956;28;20220;-82
2021/09/07 10:43:36;;;;;;;5.05;4.20;;;19.60;65.00;;;;;;5031507;28;20186;-81
2021/09/07 10:46:05;;;;;;;5.95;4.18;;;19.60;64.90;;;;;;5033220;28;20234;-81
2021/09/07 10:48:34;;;;;;;4.82;4.20;;;19.60;65.00;;;;;;5032027;28;20626;-80
2021/09/07 10:51:03;;;;;;;4.72;3.90;;;19.60;65.00;;;;;;5034981;28;20182;-81
2021/09/07 10:53:32;;;;;;;5.70;4.20;;;19.70;65.10;;;;;;5034970;28;20213;-79
2021/09/07 10:56:24;;;;;;;6.20;4.10;;;19.70;65.00;;;;;;5018780;28;20186;-83
2021/09/07 10:58:53;;;;;;;5.15;4.47;;;19.60;64.90;;;;;;5051504;28;20237;-80
2021/09/07 11:01:27;;;;;;;5.22;4.38;;;19.60;64.80;;;;;;5017832;28;20182;-82
2021/09/07 11:04:26;;;;;;;5.80;4.50;;;19.60;64.90;;;;;;5037695;28;20256;-82
2021/09/07 11:06:51;;;;;;;5.80;4.15;;;19.70;64.90;;;;;;5036193;28;20170;-82
2021/09/07 11:09:51;;;;;;;5.38;4.10;;;19.70;64.70;;;;;;5036113;28;20517;-81
2021/09/07 11:12:27;;;;;;;8.52;4.15;;;19.70;64.70;;;;;;5036949;28;20674;-81
2021/09/07 11:15:12;;;;;;;5.40;4.47;;;19.70;65.40;;;;;;5049168;28;20304;-80
2021/09/07 11:17:59;;;;;;;5.97;4.40;;;19.70;64.70;;;;;;5075048;28;20544;-79
2021/09/07 11:20:33;;;;;;;4.57;4.10;;;19.70;64.60;;;;;;5076525;28;20242;-82
2021/09/07 11:22:59;;;;;;;8.82;4.68;;;19.70;64.60;;;;;;5059618;28;20189;-80
2021/09/07 11:25:24;;;;;;;5.32;4.55;;;19.70;64.40;;;;;;5075026;28;20232;-80
2021/09/07 11:27:54;;;;;;;4.93;4.30;;;19.70;64.70;;;;;;5065479;28;20263;-85
2021/09/07 11:30:22;;;;;;;5.03;4.50;;;19.70;64.50;;;;;;5022192;28;20174;-81
2021/09/07 11:32:53;;;;;;;5.00;4.30;;;19.80;64.50;;;;;;5055467;28;20177;-83
2021/09/07 11:35:19;;;;;;;6.60;4.88;;;19.70;64.50;;;;;;5075044;28;20176;-82
2021/09/07 11:37:44;;;;;;;4.93;4.43;;;19.70;64.40;;;;;;5058109;28;20161;-80
2021/09/07 11:40:11;;;;;;;5.00;4.32;;;19.80;64.50;;;;;;5075085;28;20197;-83
2021/09/07 11:42:46;;;;;;;5.55;4.55;;;19.80;64.30;;;;;;5060846;28;20626;-82
2021/09/07 11:45:20;;;;;;;5.43;4.70;;;19.80;64.40;;;;;;5038832;28;20710;-83
2021/09/07 11:47:46;;;;;;;5.78;4.72;;;19.80;64.40;;;;;;5054602;28;20162;-83
2021/09/07 11:50:17;;;;;;;5.32;4.60;;;19.80;64.40;;;;;;5038779;28;20178;-82
2021/09/07 11:52:45;;;;;;;5.18;4.65;;;19.80;64.30;;;;;;5054871;28;20162;-82
2021/09/07 11:55:48;;;;;;;5.03;4.43;;;19.80;64.10;;;;;;5037914;28;20189;-82
2021/09/07 11:58:30;;;;;;;5.88;4.80;;;19.80;64.20;;;;;;5066630;28;20177;-80
2021/09/07 12:00:59;;;;;;;5.35;4.45;;;19.80;64.20;;;;;;5057487;28;20200;-81
2021/09/07 12:03:32;;;;;;;5.05;4.25;;;19.80;64.00;;;;;;5074628;28;20182;-84
2021/09/07 12:05:58;;;;;;;4.72;4.22;;;19.80;64.00;;;;;;5074548;28;20520;-81
2021/09/07 12:08:46;;;;;;;5.50;4.70;;;19.80;64.00;;;;;;5074148;28;20609;-82
2021/09/07 12:11:25;;;;;;;5.50;4.75;;;19.80;64.00;;;;;;5045580;28;20161;-82
2021/09/07 12:14:09;;;;;;;5.05;4.55;;;19.80;64.00;;;;;;5054140;28;20228;-81
2021/09/07 12:16:38;;;;;;;5.18;4.60;;;19.80;64.00;;;;;;5066218;28;20165;-82
2021/09/07 12:19:27;;;;;;;5.43;4.53;;;19.90;64.00;;;;;;5075325;28;20220;-83
2021/09/07 12:22:10;;;;;;;5.22;4.70;;;19.90;63.80;;;;;;5073938;28;20639;-84
2021/09/07 12:24:37;;;;;;;5.03;4.50;;;20.00;63.70;;;;;;5075641;28;20177;-82
2021/09/07 12:27:17;;;;;;;5.75;4.78;;;19.90;63.60;;;;;;5057834;28;20157;-82
2021/09/07 12:29:49;;;;;;;4.80;4.22;;;20.00;63.30;;;;;;5075424;28;20153;-81
2021/09/07 12:32:17;;;;;;;4.75;4.22;;;20.10;63.20;;;;;;5042732;28;20188;-79
2021/09/07 12:34:49;;;;;;;5.55;4.90;;;20.10;63.20;;;;;;5069906;28;20193;-83
2021/09/07 12:37:15;;;;;;;4.45;4.00;;;20.10;63.00;;;;;;5037384;28;20170;-82
2021/09/07 12:39:41;;;;;;;5.03;4.20;;;20.10;63.00;;;;;;5057350;28;20247;-80
2021/09/07 12:42:13;;;;;;;5.05;4.40;;;20.10;63.20;;;;;;5054599;28;20165;-81
2021/09/07 12:44:38;;;;;;;4.65;4.13;;;20.10;63.10;;;;;;5057921;28;20254;-84
2021/09/07 12:47:09;;;;;;;4.60;4.20;;;20.10;63.00;;;;;;5058571;28;20608;-82
2021/09/07 12:49:35;;;;;;;5.40;4.65;;;20.10;63.10;;;;;;5064759;28;20174;-82
2021/09/07 12:52:00;;;;;;;5.32;4.50;;;20.10;62.80;;;;;;5034640;28;20178;-81
2021/09/07 12:54:28;;;;;;;5.78;4.38;;;20.10;63.20;;;;;;5050083;28;20163;-84
2021/09/07 12:56:54;;;;;;;5.40;4.60;;;20.10;63.00;;;;;;5017365;28;20167;-83
2021/09/07 12:59:20;;;;;;;5.00;4.32;;;20.20;62.70;;;;;;5017231;28;20194;-80
2021/09/07 13:01:46;;;;;;;4.70;4.03;;;20.30;62.60;;;;;;5036934;28;20159;-80
2021/09/07 13:04:11;;;;;;;5.55;4.32;;;20.30;62.60;;;;;;5033220;28;20166;-80
2021/09/07 13:06:43;;;;;;;4.65;4.10;;;20.30;62.50;;;;;;5050429;28;20162;-82
2021/09/07 13:09:14;;;;;;;5.07;4.22;;;20.30;62.60;;;;;;5061500;28;20196;-81
2021/09/07 13:11:43;;;;;;;4.72;4.20;;;20.30;62.30;;;;;;5073034;28;20181;-83
2021/09/07 13:14:10;;;;;;;4.80;4.30;;;20.30;62.10;;;;;;5038257;28;20225;-82
2021/09/07 13:16:36;;;;;;;4.82;4.20;;;20.30;62.30;;;;;;5053775;28;20670;-83
2021/09/07 13:19:02;;;;;;;4.75;4.25;;;20.20;62.70;;;;;;5054259;28;20193;-80
2021/09/07 13:21:30;;;;;;;5.05;4.32;;;20.20;62.70;;;;;;5054959;28;20161;-81
2021/09/07 13:23:59;;;;;;;5.40;4.35;;;20.20;62.70;;;;;;5072427;28;20145;-80
2021/09/07 13:26:24;;;;;;;6.13;4.60;;;20.20;62.70;;;;;;5069566;28;20189;-80
2021/09/07 13:28:50;;;;;;;4.70;4.13;;;20.30;62.50;;;;;;5070829;28;20520;-82
2021/09/07 13:31:15;;;;;;;4.30;3.80;;;20.30;62.50;;;;;;5072372;28;20157;-80
2021/09/07 13:33:41;;;;;;;4.47;4.07;;;20.20;62.70;;;;;;5073994;28;20161;-81
2021/09/07 13:36:08;;;;;;;5.55;4.50;;;20.20;62.50;;;;;;5073622;28;20156;-79
2021/09/07 13:38:35;;;;;;;4.70;4.18;;;20.30;62.20;;;;;;5056228;28;20261;-84
2021/09/07 13:41:01;;;;;;;4.78;3.90;;;20.30;62.30;;;;;;5071920;28;20189;-81
2021/09/07 13:43:27;;;;;;;4.82;4.32;;;20.30;62.20;;;;;;5073558;28;20146;-79
2021/09/07 13:45:52;;;;;;;5.57;4.70;;;20.40;62.10;;;;;;5073626;28;20524;-82
2021/09/07 13:48:18;;;;;;;4.57;4.10;;;20.30;62.20;;;;;;5072151;28;20154;-83
2021/09/07 13:50:45;;;;;;;5.35;4.70;;;20.40;62.30;;;;;;5072458;28;20173;-82
2021/09/07 13:53:10;;;;;;;4.55;4.00;;;20.30;62.20;;;;;;5072488;28;20165;-81
2021/09/07 13:55:36;;;;;;;4.80;4.30;;;20.40;62.20;;;;;;5072282;28;20156;-82
2021/09/07 13:58:03;;;;;;;4.82;4.00;;;20.30;62.10;;;;;;5072711;28;20520;-80
2021/09/07 14:00:29;;;;;;;4.70;4.00;;;20.30;62.50;;;;;;5072327;28;20211;-81
2021/09/07 14:02:54;;;;;;;4.78;4.13;;;20.30;62.50;;;;;;5074671;28;20617;-83
2021/09/07 14:05:20;;;;;;;6.10;4.45;;;20.20;62.70;;;;;;5075463;28;20236;-81
2021/09/07 14:07:46;;;;;;;4.72;4.20;;;20.20;62.80;;;;;;5073968;28;20168;-82